Time;durP1;ratioP1;P1;durP2;ratioP2;P2;SDS_P1;SDS_P2;PMS_P1;PMS_P2;Temp;Humidity;BMP_temperature;BMP_pressure;BME280_temperature;BME280_humidity;BME280_pressure;Samples;Min_cycle;Max_cycle;Signal;HPM_P1;HPM_P2
2023/12/26 00:01:55;;;;;;;148.17;20.93;;;;;;;;;;5009694;28;20703;-50
2023/12/26 00:04:22;;;;;;;153.13;22.87;;;;;;;;;;5009408;28;20221;-50
2023/12/26 00:06:48;;;;;;;164.77;23.93;;;;;;;;;;5009096;28;20224;-50
2023/12/26 00:09:16;;;;;;;182.00;27.80;;;;;;;;;;5009718;28;20191;-50
2023/12/26 00:11:46;;;;;;;171.07;24.90;;;;;;;;;;5009312;28;20220;-50
2023/12/26 00:14:15;;;;;;;188.60;27.97;;;;;;;;;;5009031;28;20627;-51
2023/12/26 00:16:41;;;;;;;202.87;30.23;;;;;;;;;;5009396;28;20283;-49
2023/12/26 00:19:08;;;;;;;185.07;27.20;;;;;;;;;;5007846;28;20721;-50
2023/12/26 00:21:34;;;;;;;150.40;22.87;;;;;;;;;;5009040;28;20185;-50
2023/12/26 00:24:00;;;;;;;158.50;23.57;;;;;;;;;;5009822;28;20254;-50
2023/12/26 00:26:26;;;;;;;162.70;23.63;;;;;;;;;;5008686;28;20236;-50
2023/12/26 00:28:52;;;;;;;180.40;25.97;;;;;;;;;;5009063;28;20798;-49
2023/12/26 00:31:18;;;;;;;187.93;27.90;;;;;;;;;;5008706;28;20244;-50
2023/12/26 00:33:44;;;;;;;170.53;25.40;;;;;;;;;;5008717;28;20173;-50
2023/12/26 00:36:14;;;;;;;152.70;22.83;;;;;;;;;;5009543;28;20216;-50
2023/12/26 00:38:39;;;;;;;158.60;23.60;;;;;;;;;;5008663;28;20596;-50
2023/12/26 00:41:06;;;;;;;152.67;22.60;;;;;;;;;;5008914;28;20523;-50
2023/12/26 00:43:32;;;;;;;166.43;24.27;;;;;;;;;;5008658;28;20224;-50
2023/12/26 00:45:58;;;;;;;182.40;26.60;;;;;;;;;;5008616;28;20557;-50
2023/12/26 00:48:27;;;;;;;187.27;27.57;;;;;;;;;;5008856;28;20200;-50
2023/12/26 00:50:53;;;;;;;267.47;42.27;;;;;;;;;;4995287;28;20224;-55
2023/12/26 00:53:19;;;;;;;257.13;41.27;;;;;;;;;;4998188;28;20223;-54
2023/12/26 00:55:45;;;;;;;239.33;37.17;;;;;;;;;;4998225;28;20217;-55
2023/12/26 00:58:11;;;;;;;266.90;42.33;;;;;;;;;;4999763;28;20308;-55
2023/12/26 01:00:37;;;;;;;205.47;31.53;;;;;;;;;;4999933;28;20184;-55
2023/12/26 01:03:03;;;;;;;255.20;40.97;;;;;;;;;;5000962;28;20196;-54
2023/12/26 01:05:29;;;;;;;222.40;34.23;;;;;;;;;;4999320;28;20216;-55
2023/12/26 01:07:55;;;;;;;228.87;34.23;;;;;;;;;;5000285;28;20282;-54
2023/12/26 01:10:21;;;;;;;238.13;35.90;;;;;;;;;;4993546;28;20246;-55
2023/12/26 01:12:47;;;;;;;225.37;34.83;;;;;;;;;;4999120;28;21841;-54
2023/12/26 01:15:14;;;;;;;267.37;44.03;;;;;;;;;;4998491;28;20638;-54
2023/12/26 01:17:40;;;;;;;220.60;35.13;;;;;;;;;;4998542;28;20255;-55
2023/12/26 01:20:06;;;;;;;260.07;41.63;;;;;;;;;;4996541;28;20244;-55
2023/12/26 01:22:32;;;;;;;236.87;36.13;;;;;;;;;;5000566;28;20223;-55
2023/12/26 01:24:58;;;;;;;206.40;31.50;;;;;;;;;;4995848;28;20279;-54
2023/12/26 01:27:24;;;;;;;291.83;46.47;;;;;;;;;;5000967;28;20205;-55
2023/12/26 01:29:50;;;;;;;209.10;31.53;;;;;;;;;;4997150;28;20255;-55
2023/12/26 01:32:16;;;;;;;227.97;35.90;;;;;;;;;;4997545;28;20217;-54
2023/12/26 01:34:42;;;;;;;321.67;53.23;;;;;;;;;;4994984;28;20213;-55
2023/12/26 01:37:08;;;;;;;254.63;41.50;;;;;;;;;;4994838;28;20271;-55
2023/12/26 01:39:34;;;;;;;296.10;48.83;;;;;;;;;;4987883;28;20234;-54
2023/12/26 01:42:00;;;;;;;308.73;51.57;;;;;;;;;;5000006;28;20295;-55
2023/12/26 01:44:26;;;;;;;228.40;35.50;;;;;;;;;;4998027;28;20224;-55
2023/12/26 01:46:53;;;;;;;162.70;24.63;;;;;;;;;;5000281;28;20225;-55
2023/12/26 01:49:19;;;;;;;311.67;51.97;;;;;;;;;;4994431;28;20217;-54
2023/12/26 01:51:46;;;;;;;216.87;33.10;;;;;;;;;;4999383;28;20229;-55
2023/12/26 01:54:12;;;;;;;224.47;35.17;;;;;;;;;;4995689;28;20273;-55
2023/12/26 01:56:38;;;;;;;210.03;33.23;;;;;;;;;;4995949;28;20243;-55
2023/12/26 01:59:04;;;;;;;221.80;35.37;;;;;;;;;;4993141;28;20692;-55
2023/12/26 02:01:31;;;;;;;250.77;40.37;;;;;;;;;;4998711;28;20655;-54
2023/12/26 02:03:59;;;;;;;202.83;31.80;;;;;;;;;;4996521;28;20222;-54
2023/12/26 02:06:25;;;;;;;263.43;42.93;;;;;;;;;;4993060;28;20255;-55
2023/12/26 02:08:51;;;;;;;173.90;27.37;;;;;;;;;;4998327;28;20204;-54
2023/12/26 02:11:17;;;;;;;306.43;52.03;;;;;;;;;;4995779;28;20213;-54
2023/12/26 02:13:43;;;;;;;209.33;33.47;;;;;;;;;;4995854;28;20228;-55
2023/12/26 02:16:13;;;;;;;241.00;37.57;;;;;;;;;;4996182;28;20311;-55
2023/12/26 02:18:40;;;;;;;208.23;32.03;;;;;;;;;;4998128;28;20181;-55
2023/12/26 02:21:06;;;;;;;279.87;44.83;;;;;;;;;;4993574;28;20181;-53
2023/12/26 02:23:32;;;;;;;359.10;63.57;;;;;;;;;;4995815;28;20306;-53
2023/12/26 02:25:58;;;;;;;197.53;31.13;;;;;;;;;;4998016;28;20447;-53
2023/12/26 02:28:25;;;;;;;172.47;25.97;;;;;;;;;;4995744;28;20220;-53
2023/12/26 02:30:52;;;;;;;179.80;27.03;;;;;;;;;;4986020;28;20528;-53
2023/12/26 02:33:18;;;;;;;223.80;38.67;;;;;;;;;;4999493;28;20750;-53
2023/12/26 02:35:44;;;;;;;211.70;33.37;;;;;;;;;;4991049;28;20776;-54
2023/12/26 02:38:10;;;;;;;309.63;51.87;;;;;;;;;;4993154;28;20743;-53
2023/12/26 02:40:36;;;;;;;220.47;33.90;;;;;;;;;;4996108;28;20212;-53
2023/12/26 02:43:02;;;;;;;226.37;36.40;;;;;;;;;;4996718;28;20722;-54
2023/12/26 02:45:29;;;;;;;210.60;33.13;;;;;;;;;;4995011;28;20244;-53
2023/12/26 02:47:55;;;;;;;199.17;32.37;;;;;;;;;;4997099;28;20213;-53
2023/12/26 02:50:21;;;;;;;230.30;38.03;;;;;;;;;;4993286;28;20212;-53
2023/12/26 02:52:47;;;;;;;209.47;33.40;;;;;;;;;;4996569;28;20282;-53
2023/12/26 02:55:13;;;;;;;283.40;46.83;;;;;;;;;;5022670;28;20224;-53
2023/12/26 02:57:39;;;;;;;220.03;35.00;;;;;;;;;;5001708;28;20210;-56
2023/12/26 03:00:06;;;;;;;292.20;46.70;;;;;;;;;;4999504;28;20711;-56
2023/12/26 03:02:34;;;;;;;190.63;28.63;;;;;;;;;;5002593;28;20216;-55
2023/12/26 03:05:00;;;;;;;203.73;31.40;;;;;;;;;;4996359;28;20252;-55
2023/12/26 03:07:26;;;;;;;199.63;30.60;;;;;;;;;;5002293;28;20279;-56
2023/12/26 03:09:52;;;;;;;180.63;27.60;;;;;;;;;;4999222;28;20214;-56
2023/12/26 03:12:18;;;;;;;250.00;39.97;;;;;;;;;;5002641;28;20565;-55
2023/12/26 03:14:44;;;;;;;226.93;35.47;;;;;;;;;;4997881;28;20300;-56
2023/12/26 03:17:10;;;;;;;255.07;43.50;;;;;;;;;;4998334;28;20695;-53
2023/12/26 03:19:36;;;;;;;222.03;34.80;;;;;;;;;;4991122;28;20298;-54
2023/12/26 03:22:03;;;;;;;214.13;33.30;;;;;;;;;;5003080;28;20698;-53
2023/12/26 03:24:29;;;;;;;315.00;55.03;;;;;;;;;;5000644;28;20243;-54
2023/12/26 03:26:55;;;;;;;227.40;36.07;;;;;;;;;;5001263;28;20213;-54
2023/12/26 03:29:21;;;;;;;156.83;26.03;;;;;;;;;;5000670;28;20219;-53
2023/12/26 03:31:47;;;;;;;220.17;34.43;;;;;;;;;;4999535;28;20216;-53
2023/12/26 03:34:13;;;;;;;272.27;46.27;;;;;;;;;;4996890;28;20692;-54
2023/12/26 03:36:43;;;;;;;263.00;43.77;;;;;;;;;;4997410;28;20258;-53
2023/12/26 03:39:09;;;;;;;233.23;36.30;;;;;;;;;;4994559;28;20192;-54
2023/12/26 03:41:36;;;;;;;226.07;34.87;;;;;;;;;;5000364;28;20600;-53
2023/12/26 03:44:03;;;;;;;193.27;29.53;;;;;;;;;;5000119;28;20747;-53
2023/12/26 03:46:29;;;;;;;210.27;34.90;;;;;;;;;;5000013;28;20220;-54
2023/12/26 03:48:55;;;;;;;222.80;35.27;;;;;;;;;;4997856;28;20225;-54
2023/12/26 03:51:20;;;;;;;270.70;43.23;;;;;;;;;;4998964;28;20224;-53
2023/12/26 03:53:46;;;;;;;233.87;36.90;;;;;;;;;;4994200;28;20220;-53
2023/12/26 03:56:12;;;;;;;255.90;41.77;;;;;;;;;;4999466;28;20870;-55
2023/12/26 03:58:38;;;;;;;247.37;39.13;;;;;;;;;;4999823;28;20221;-53
2023/12/26 04:01:04;;;;;;;213.00;32.97;;;;;;;;;;4995768;28;20213;-53
2023/12/26 04:03:30;;;;;;;239.33;41.63;;;;;;;;;;4998831;28;20668;-54
2023/12/26 04:05:56;;;;;;;201.93;31.17;;;;;;;;;;5000169;28;20213;-54
2023/12/26 04:08:22;;;;;;;249.87;40.93;;;;;;;;;;5003817;28;20352;-54
2023/12/26 04:10:48;;;;;;;220.93;34.10;;;;;;;;;;4996553;28;20220;-53
2023/12/26 04:13:14;;;;;;;246.77;39.07;;;;;;;;;;4995278;28;20213;-54
2023/12/26 04:15:40;;;;;;;174.97;27.27;;;;;;;;;;4994620;28;20791;-54
2023/12/26 04:18:07;;;;;;;211.47;34.37;;;;;;;;;;4998829;28;20212;-55
2023/12/26 04:20:32;;;;;;;198.47;30.20;;;;;;;;;;5003280;28;20231;-54
2023/12/26 04:22:58;;;;;;;214.17;33.40;;;;;;;;;;5000320;28;20751;-54
2023/12/26 04:25:24;;;;;;;222.57;36.10;;;;;;;;;;4999577;28;20688;-54
2023/12/26 04:27:51;;;;;;;213.80;33.87;;;;;;;;;;5001758;28;20224;-55
2023/12/26 04:30:17;;;;;;;314.40;55.33;;;;;;;;;;4984582;28;20181;-54
2023/12/26 04:32:43;;;;;;;223.60;35.50;;;;;;;;;;4997094;28;20834;-54
2023/12/26 04:35:09;;;;;;;237.23;37.20;;;;;;;;;;4990210;28;20221;-55
2023/12/26 04:37:36;;;;;;;219.03;33.37;;;;;;;;;;4998013;28;20242;-54
2023/12/26 04:40:02;;;;;;;235.03;38.20;;;;;;;;;;4997099;28;20248;-54
2023/12/26 04:42:28;;;;;;;213.33;35.13;;;;;;;;;;5000387;28;20276;-54
2023/12/26 04:44:54;;;;;;;211.07;33.43;;;;;;;;;;5002606;28;20181;-54
2023/12/26 04:47:20;;;;;;;259.33;44.13;;;;;;;;;;4996381;28;20343;-54
2023/12/26 04:49:46;;;;;;;233.63;38.53;;;;;;;;;;4994349;28;20212;-54
2023/12/26 04:52:12;;;;;;;283.57;48.60;;;;;;;;;;4996881;28;21003;-54
2023/12/26 04:54:39;;;;;;;182.17;27.77;;;;;;;;;;5004431;28;20204;-54
2023/12/26 04:57:05;;;;;;;187.77;29.90;;;;;;;;;;5003398;28;20212;-55
2023/12/26 04:59:31;;;;;;;216.80;35.73;;;;;;;;;;4991201;28;20223;-55
2023/12/26 05:01:57;;;;;;;258.37;41.53;;;;;;;;;;4992073;28;20217;-55
2023/12/26 05:04:23;;;;;;;238.63;39.03;;;;;;;;;;4995254;28;20228;-55
2023/12/26 05:06:49;;;;;;;207.07;32.47;;;;;;;;;;5000324;28;20225;-54
2023/12/26 05:09:16;;;;;;;253.57;42.23;;;;;;;;;;4997916;28;20173;-54
2023/12/26 05:11:42;;;;;;;228.13;35.53;;;;;;;;;;5004759;28;20216;-54
2023/12/26 05:14:08;;;;;;;322.10;52.53;;;;;;;;;;5003157;28;21276;-54
2023/12/26 05:16:39;;;;;;;312.00;52.03;;;;;;;;;;4998624;28;20279;-54
2023/12/26 05:19:05;;;;;;;213.57;33.53;;;;;;;;;;5000995;28;20248;-54
2023/12/26 05:21:31;;;;;;;183.97;30.37;;;;;;;;;;5003105;28;20308;-55
2023/12/26 05:23:57;;;;;;;224.33;34.50;;;;;;;;;;5005741;28;20185;-55
2023/12/26 05:26:23;;;;;;;216.13;34.30;;;;;;;;;;5001340;28;20233;-55
2023/12/26 05:28:50;;;;;;;231.83;37.43;;;;;;;;;;5001391;28;20251;-55
2023/12/26 05:31:20;;;;;;;224.83;35.17;;;;;;;;;;4999185;28;20220;-55
2023/12/26 05:33:46;;;;;;;183.77;28.10;;;;;;;;;;4999179;28;20521;-55
2023/12/26 05:36:12;;;;;;;206.13;32.17;;;;;;;;;;5003714;28;20272;-55
2023/12/26 05:38:38;;;;;;;251.00;42.77;;;;;;;;;;4999653;28;20709;-55
2023/12/26 05:41:04;;;;;;;218.80;34.97;;;;;;;;;;5000281;28;20309;-55
2023/12/26 05:43:31;;;;;;;251.87;43.00;;;;;;;;;;5003539;28;20734;-55
2023/12/26 05:45:57;;;;;;;214.10;33.33;;;;;;;;;;5009355;28;20347;-55
2023/12/26 05:48:23;;;;;;;249.50;41.30;;;;;;;;;;5001779;28;20224;-55
2023/12/26 05:50:49;;;;;;;177.43;27.00;;;;;;;;;;5006580;28;20850;-55
2023/12/26 05:53:15;;;;;;;216.60;34.37;;;;;;;;;;5003265;28;20218;-55
2023/12/26 05:55:41;;;;;;;209.93;33.50;;;;;;;;;;5001774;28;20715;-55
2023/12/26 05:58:07;;;;;;;242.97;39.87;;;;;;;;;;5001161;28;20278;-55
2023/12/26 06:00:33;;;;;;;244.73;39.07;;;;;;;;;;5002081;28;20512;-55
2023/12/26 06:02:59;;;;;;;212.27;34.43;;;;;;;;;;5003267;28;20193;-55
2023/12/26 06:05:26;;;;;;;223.33;37.97;;;;;;;;;;4997476;28;20691;-55
2023/12/26 06:07:52;;;;;;;220.30;36.67;;;;;;;;;;5001701;28;20216;-55
2023/12/26 06:10:18;;;;;;;228.97;37.37;;;;;;;;;;4998728;28;20220;-55
2023/12/26 06:12:44;;;;;;;161.17;24.60;;;;;;;;;;5000678;28;20326;-55
2023/12/26 06:15:10;;;;;;;212.10;34.27;;;;;;;;;;4999043;28;20243;-55
2023/12/26 06:17:36;;;;;;;263.73;43.13;;;;;;;;;;4998664;28;20452;-55
2023/12/26 06:20:03;;;;;;;264.07;43.90;;;;;;;;;;4998236;28;20727;-55
2023/12/26 06:22:29;;;;;;;238.27;38.80;;;;;;;;;;4995782;28;20255;-55
2023/12/26 06:24:55;;;;;;;210.83;32.37;;;;;;;;;;5000117;28;20220;-55
2023/12/26 06:27:21;;;;;;;248.97;40.87;;;;;;;;;;5001233;28;20382;-55
2023/12/26 06:29:47;;;;;;;220.03;36.53;;;;;;;;;;5002627;28;20295;-55
2023/12/26 06:32:13;;;;;;;238.90;39.30;;;;;;;;;;4999109;28;20255;-55
2023/12/26 06:34:39;;;;;;;195.57;31.87;;;;;;;;;;4999830;28;20205;-55
2023/12/26 06:37:05;;;;;;;207.13;32.20;;;;;;;;;;4991483;28;20229;-55
2023/12/26 06:39:32;;;;;;;285.53;47.50;;;;;;;;;;4998391;28;22460;-55
2023/12/26 06:41:58;;;;;;;208.10;33.77;;;;;;;;;;4999300;28;20308;-55
2023/12/26 06:44:24;;;;;;;208.10;35.80;;;;;;;;;;4997625;28;20224;-55
2023/12/26 06:46:50;;;;;;;171.87;27.13;;;;;;;;;;4992629;28;20247;-56
2023/12/26 06:49:18;;;;;;;210.43;34.53;;;;;;;;;;4999214;28;20216;-52
2023/12/26 06:51:44;;;;;;;219.57;33.63;;;;;;;;;;4987558;28;20276;-52
2023/12/26 06:54:11;;;;;;;196.17;31.07;;;;;;;;;;4994304;28;20387;-52
2023/12/26 06:56:37;;;;;;;215.77;33.37;;;;;;;;;;4992942;28;20786;-52
2023/12/26 06:59:03;;;;;;;276.27;44.57;;;;;;;;;;4996360;28;20244;-52
2023/12/26 07:01:29;;;;;;;262.97;42.17;;;;;;;;;;4991511;28;20304;-52
2023/12/26 07:03:55;;;;;;;219.80;34.73;;;;;;;;;;4995022;28;20667;-52
2023/12/26 07:06:21;;;;;;;236.90;37.87;;;;;;;;;;4995297;28;20211;-52
2023/12/26 07:08:47;;;;;;;250.00;41.30;;;;;;;;;;4994225;28;20233;-52
2023/12/26 07:11:13;;;;;;;186.13;30.43;;;;;;;;;;4994293;28;20224;-52
2023/12/26 07:13:39;;;;;;;209.47;33.00;;;;;;;;;;4994428;28;20828;-52
2023/12/26 07:16:05;;;;;;;210.17;32.20;;;;;;;;;;4994158;28;20233;-52
2023/12/26 07:18:31;;;;;;;287.47;48.13;;;;;;;;;;4993071;28;20185;-52
2023/12/26 07:20:57;;;;;;;249.53;40.33;;;;;;;;;;4994335;28;20244;-52
2023/12/26 07:23:23;;;;;;;237.27;40.50;;;;;;;;;;4999768;28;20592;-52
2023/12/26 07:25:49;;;;;;;198.70;30.60;;;;;;;;;;4993160;28;20311;-51
2023/12/26 07:28:17;;;;;;;187.07;29.00;;;;;;;;;;5001450;28;20699;-52
2023/12/26 07:30:43;;;;;;;168.17;27.77;;;;;;;;;;4991758;28;20197;-52
2023/12/26 07:33:12;;;;;;;227.37;35.20;;;;;;;;;;4998155;28;20185;-52
2023/12/26 07:35:38;;;;;;;229.47;36.67;;;;;;;;;;4994328;28;20357;-52
2023/12/26 07:38:05;;;;;;;242.23;39.87;;;;;;;;;;4994392;28;20806;-52
2023/12/26 07:40:32;;;;;;;215.80;34.63;;;;;;;;;;4993029;28;20278;-52
2023/12/26 07:42:58;;;;;;;247.63;39.60;;;;;;;;;;4997398;28;20235;-51
2023/12/26 07:45:25;;;;;;;235.13;36.90;;;;;;;;;;4998064;28;20192;-52
2023/12/26 07:47:51;;;;;;;231.37;37.03;;;;;;;;;;5001014;28;20384;-52
2023/12/26 07:50:17;;;;;;;344.23;61.00;;;;;;;;;;4971218;28;20480;-51
2023/12/26 07:52:43;;;;;;;216.60;32.23;;;;;;;;;;4982236;28;20220;-51
2023/12/26 07:55:10;;;;;;;258.43;41.80;;;;;;;;;;4990625;28;20545;-52
2023/12/26 07:57:36;;;;;;;226.20;37.17;;;;;;;;;;4991153;28;20300;-52
2023/12/26 08:00:02;;;;;;;219.77;34.00;;;;;;;;;;4985266;28;20355;-51
2023/12/26 08:02:28;;;;;;;277.77;46.10;;;;;;;;;;4995178;28;20756;-52
2023/12/26 08:04:54;;;;;;;195.50;30.40;;;;;;;;;;4996501;28;20229;-51
2023/12/26 08:07:20;;;;;;;203.90;33.27;;;;;;;;;;4992983;28;20228;-52
2023/12/26 08:09:46;;;;;;;243.00;40.83;;;;;;;;;;4986874;28;20251;-51
2023/12/26 08:12:12;;;;;;;220.20;37.13;;;;;;;;;;4990567;28;20188;-51
2023/12/26 08:14:38;;;;;;;280.33;49.23;;;;;;;;;;4985599;28;20216;-52
2023/12/26 08:17:04;;;;;;;210.67;34.33;;;;;;;;;;4994807;28;20213;-52
2023/12/26 08:19:31;;;;;;;278.90;48.77;;;;;;;;;;4994622;28;20545;-52
2023/12/26 08:21:57;;;;;;;252.87;39.83;;;;;;;;;;4993506;28;20225;-52
2023/12/26 08:24:23;;;;;;;275.03;44.40;;;;;;;;;;4988936;28;20674;-51
2023/12/26 08:29:52;;;;;;;265.57;41.57;;;;;;;;;;5008982;28;20274;-52
2023/12/26 08:32:18;;;;;;;354.47;60.13;;;;;;;;;;4981482;28;20220;-52
2023/12/26 08:34:44;;;;;;;221.63;33.47;;;;;;;;;;4978526;28;20221;-52
2023/12/26 08:37:13;;;;;;;316.10;50.03;;;;;;;;;;4983996;28;20623;-51
2023/12/26 08:39:39;;;;;;;298.93;49.70;;;;;;;;;;4980945;28;20655;-51
2023/12/26 08:42:05;;;;;;;248.43;39.90;;;;;;;;;;4975416;28;22008;-52
2023/12/26 08:44:31;;;;;;;264.90;43.30;;;;;;;;;;4987276;28;20224;-51
2023/12/26 08:46:57;;;;;;;219.03;33.87;;;;;;;;;;5000746;28;20229;-51
2023/12/26 08:49:23;;;;;;;247.90;39.87;;;;;;;;;;5004550;28;20244;-53
2023/12/26 08:51:49;;;;;;;332.33;56.50;;;;;;;;;;4991603;28;20348;-52
2023/12/26 08:54:15;;;;;;;208.07;34.10;;;;;;;;;;5000491;28;20680;-53
2023/12/26 08:56:41;;;;;;;240.87;40.27;;;;;;;;;;4991249;28;20370;-52
2023/12/26 08:59:07;;;;;;;210.33;34.93;;;;;;;;;;4992997;28;20217;-52
2023/12/26 09:01:35;;;;;;;229.23;37.53;;;;;;;;;;4999818;28;20216;-52
2023/12/26 09:04:01;;;;;;;161.43;26.17;;;;;;;;;;5006051;28;20266;-52
2023/12/26 09:06:27;;;;;;;245.43;40.73;;;;;;;;;;5005574;28;20738;-51
2023/12/26 09:08:53;;;;;;;253.33;39.87;;;;;;;;;;4988668;28;20212;-52
2023/12/26 09:11:19;;;;;;;229.33;35.93;;;;;;;;;;4996516;28;20575;-52
2023/12/26 09:13:45;;;;;;;189.07;29.57;;;;;;;;;;4999901;28;20241;-52
2023/12/26 09:16:11;;;;;;;240.13;36.70;;;;;;;;;;4996827;28;20251;-51
2023/12/26 09:18:37;;;;;;;227.47;36.20;;;;;;;;;;4998732;28;20589;-52
2023/12/26 09:21:03;;;;;;;235.20;36.13;;;;;;;;;;4996676;28;20436;-52
2023/12/26 09:23:30;;;;;;;271.43;46.00;;;;;;;;;;4998487;28;20271;-52
2023/12/26 09:25:56;;;;;;;194.03;30.17;;;;;;;;;;4996394;28;20232;-53
2023/12/26 09:28:22;;;;;;;195.23;29.83;;;;;;;;;;5001353;28;20224;-52
2023/12/26 09:30:48;;;;;;;171.77;26.57;;;;;;;;;;4996930;28;20217;-52
2023/12/26 09:33:14;;;;;;;207.50;31.67;;;;;;;;;;4997827;28;20181;-52
2023/12/26 09:35:40;;;;;;;183.63;26.70;;;;;;;;;;5004139;28;20228;-52
2023/12/26 09:38:06;;;;;;;168.83;24.97;;;;;;;;;;5007073;28;20739;-52
2023/12/26 09:40:32;;;;;;;156.60;25.13;;;;;;;;;;5004623;28;20579;-50
2023/12/26 09:43:02;;;;;;;167.43;24.97;;;;;;;;;;5008254;28;20266;-52
2023/12/26 09:45:28;;;;;;;202.80;31.77;;;;;;;;;;5004135;28;20515;-50
2023/12/26 09:47:54;;;;;;;203.47;32.17;;;;;;;;;;5007454;28;20192;-50
2023/12/26 09:50:21;;;;;;;231.33;36.47;;;;;;;;;;4992734;28;20256;-50
2023/12/26 09:52:56;;;;;;;215.43;34.77;;;;;;;;;;4988387;28;21395;-50
2023/12/26 09:55:23;;;;;;;303.20;51.07;;;;;;;;;;4986914;28;20229;-50
2023/12/26 09:57:49;;;;;;;224.87;34.90;;;;;;;;;;5006168;28;20221;-51
2023/12/26 10:00:15;;;;;;;196.53;32.20;;;;;;;;;;5013284;28;20181;-51
2023/12/26 10:02:44;;;;;;;244.23;40.60;;;;;;;;;;5013737;28;20690;-51
2023/12/26 10:05:10;;;;;;;223.37;38.27;;;;;;;;;;5000172;28;20589;-50
2023/12/26 10:07:36;;;;;;;282.80;48.00;;;;;;;;;;5006699;28;20216;-50
2023/12/26 10:10:03;;;;;;;215.93;34.10;;;;;;;;;;5008708;28;20227;-50
2023/12/26 10:12:34;;;;;;;303.97;52.17;;;;;;;;;;4984525;28;20524;-50
2023/12/26 10:15:00;;;;;;;288.17;46.87;;;;;;;;;;5005545;28;20207;-50
2023/12/26 10:17:26;;;;;;;168.73;25.87;;;;;;;;;;4996012;28;20440;-51
2023/12/26 10:19:57;;;;;;;163.83;26.27;;;;;;;;;;5011713;28;20221;-51
2023/12/26 10:22:23;;;;;;;286.10;47.00;;;;;;;;;;4993126;28;20334;-51
2023/12/26 10:24:49;;;;;;;203.10;32.60;;;;;;;;;;5001722;28;20231;-51
2023/12/26 10:27:15;;;;;;;182.87;27.37;;;;;;;;;;5010529;28;20216;-51
2023/12/26 10:29:41;;;;;;;240.40;38.73;;;;;;;;;;5011740;28;20246;-51
2023/12/26 10:32:07;;;;;;;267.50;44.67;;;;;;;;;;5007323;28;20251;-51
2023/12/26 10:34:33;;;;;;;227.63;37.43;;;;;;;;;;4990667;28;20219;-51
2023/12/26 10:37:00;;;;;;;187.37;29.70;;;;;;;;;;4991200;28;20284;-51
2023/12/26 10:39:28;;;;;;;292.33;46.93;;;;;;;;;;4985598;28;20219;-51
2023/12/26 10:41:54;;;;;;;195.83;29.47;;;;;;;;;;4988867;28;20655;-51
2023/12/26 10:44:20;;;;;;;225.60;35.70;;;;;;;;;;4987898;28;20573;-51
2023/12/26 10:46:49;;;;;;;238.33;40.07;;;;;;;;;;4994968;28;20225;-51
2023/12/26 10:49:21;;;;;;;281.27;48.40;;;;;;;;;;4986752;28;20311;-50
2023/12/26 10:51:48;;;;;;;221.53;37.90;;;;;;;;;;4990906;28;20710;-50
2023/12/26 10:54:14;;;;;;;203.60;33.43;;;;;;;;;;4990767;28;20185;-51
2023/12/26 10:56:41;;;;;;;226.20;39.20;;;;;;;;;;4983394;28;20264;-51
2023/12/26 10:59:08;;;;;;;187.93;28.93;;;;;;;;;;4990197;28;20244;-51
2023/12/26 11:01:34;;;;;;;216.77;36.53;;;;;;;;;;4988420;28;20217;-51
2023/12/26 11:04:01;;;;;;;217.40;34.43;;;;;;;;;;4991871;28;20225;-51
2023/12/26 11:06:27;;;;;;;222.20;36.27;;;;;;;;;;4982453;28;20206;-50
2023/12/26 11:08:53;;;;;;;158.13;24.37;;;;;;;;;;4995556;28;20284;-51
2023/12/26 11:11:19;;;;;;;188.93;30.07;;;;;;;;;;4989095;28;20328;-51
2023/12/26 11:13:46;;;;;;;250.97;40.80;;;;;;;;;;4981437;28;20252;-51
2023/12/26 11:16:12;;;;;;;203.63;31.57;;;;;;;;;;4989108;28;20247;-51
2023/12/26 11:18:38;;;;;;;279.27;46.73;;;;;;;;;;4986194;28;20668;-50
2023/12/26 11:21:05;;;;;;;328.50;53.73;;;;;;;;;;4992046;28;20196;-51
2023/12/26 11:23:31;;;;;;;210.50;33.40;;;;;;;;;;4995304;28;20387;-51
2023/12/26 11:25:57;;;;;;;188.87;30.50;;;;;;;;;;4989229;28;20270;-51
2023/12/26 11:28:24;;;;;;;169.80;26.30;;;;;;;;;;4995473;28;20236;-51
2023/12/26 11:30:50;;;;;;;202.77;32.33;;;;;;;;;;4991539;28;20248;-51
2023/12/26 11:33:16;;;;;;;196.57;31.10;;;;;;;;;;5000245;28;20200;-51
2023/12/26 11:35:42;;;;;;;367.80;62.60;;;;;;;;;;4984795;28;20225;-52
2023/12/26 11:38:08;;;;;;;302.07;50.67;;;;;;;;;;4993408;28;20569;-51
2023/12/26 11:40:35;;;;;;;225.17;35.13;;;;;;;;;;4990697;28;20224;-51
2023/12/26 11:43:01;;;;;;;189.97;29.40;;;;;;;;;;4992895;28;20290;-51
2023/12/26 11:45:27;;;;;;;217.00;34.13;;;;;;;;;;4992729;28;20723;-51
2023/12/26 11:47:53;;;;;;;297.63;50.10;;;;;;;;;;4991327;28;20216;-51
2023/12/26 11:50:19;;;;;;;181.00;27.20;;;;;;;;;;4992852;28;20748;-51
2023/12/26 11:52:45;;;;;;;198.50;32.73;;;;;;;;;;4993581;28;20596;-51
2023/12/26 11:55:11;;;;;;;208.87;31.90;;;;;;;;;;4991486;28;20213;-51
2023/12/26 11:57:37;;;;;;;256.13;41.90;;;;;;;;;;4992811;28;20209;-51
2023/12/26 12:00:03;;;;;;;195.50;30.97;;;;;;;;;;4993044;28;20208;-51
2023/12/26 12:02:29;;;;;;;211.07;32.87;;;;;;;;;;4990376;28;20224;-51
2023/12/26 12:05:01;;;;;;;225.53;36.47;;;;;;;;;;4986631;28;20247;-51
2023/12/26 12:07:27;;;;;;;203.03;32.13;;;;;;;;;;4989188;28;20224;-51
2023/12/26 12:10:07;;;;;;;273.40;45.63;;;;;;;;;;4984192;28;20654;-51
2023/12/26 12:12:33;;;;;;;220.93;35.37;;;;;;;;;;4991659;28;20196;-51
2023/12/26 12:14:59;;;;;;;209.23;32.73;;;;;;;;;;4989472;28;20196;-51
2023/12/26 12:17:25;;;;;;;293.90;48.17;;;;;;;;;;4989280;28;20218;-51
2023/12/26 12:19:51;;;;;;;193.20;30.67;;;;;;;;;;4995447;28;20221;-51
2023/12/26 12:22:26;;;;;;;217.90;34.00;;;;;;;;;;4989753;28;20232;-51
2023/12/26 12:24:52;;;;;;;205.80;35.03;;;;;;;;;;4992873;28;20220;-51
2023/12/26 12:27:18;;;;;;;217.10;34.83;;;;;;;;;;4994998;28;20247;-51
2023/12/26 12:30:00;;;;;;;175.70;28.57;;;;;;;;;;4997054;28;20251;-51
2023/12/26 12:32:32;;;;;;;217.90;35.20;;;;;;;;;;4994097;28;20213;-52
2023/12/26 12:35:14;;;;;;;206.80;33.03;;;;;;;;;;4989493;28;20855;-52
2023/12/26 12:37:41;;;;;;;234.57;37.33;;;;;;;;;;4995318;28;20232;-53
2023/12/26 12:40:07;;;;;;;185.93;29.83;;;;;;;;;;4994114;28;20659;-52
2023/12/26 12:42:39;;;;;;;174.37;27.10;;;;;;;;;;5000852;28;20699;-51
2023/12/26 12:45:05;;;;;;;210.27;32.73;;;;;;;;;;4996419;28;20181;-51
2023/12/26 12:47:32;;;;;;;211.57;33.97;;;;;;;;;;5000281;28;20220;-52
2023/12/26 12:49:58;;;;;;;243.83;38.20;;;;;;;;;;4997892;28;20395;-52
2023/12/26 12:52:24;;;;;;;226.23;37.80;;;;;;;;;;4992906;28;20276;-52
2023/12/26 12:54:50;;;;;;;252.30;42.27;;;;;;;;;;4987955;28;20402;-51
2023/12/26 12:57:16;;;;;;;179.33;28.27;;;;;;;;;;4997516;28;20215;-52
2023/12/26 12:59:41;;;;;;;273.73;45.43;;;;;;;;;;4994978;28;20307;-52
2023/12/26 13:02:10;;;;;;;188.13;29.53;;;;;;;;;;4995688;28;20223;-51
2023/12/26 13:04:38;;;;;;;247.47;38.60;;;;;;;;;;4995899;28;20455;-52
2023/12/26 13:07:04;;;;;;;233.90;37.73;;;;;;;;;;4993245;28;20287;-52
2023/12/26 13:09:30;;;;;;;248.13;42.33;;;;;;;;;;4988509;28;20181;-52
2023/12/26 13:11:56;;;;;;;261.13;45.23;;;;;;;;;;4993964;28;20188;-52
2023/12/26 13:14:22;;;;;;;178.87;28.33;;;;;;;;;;4991691;28;20232;-52
2023/12/26 13:16:48;;;;;;;234.47;38.07;;;;;;;;;;4992510;28;20225;-52
2023/12/26 13:19:14;;;;;;;200.33;31.27;;;;;;;;;;4992559;28;20695;-52
2023/12/26 13:21:44;;;;;;;266.93;41.93;;;;;;;;;;4990782;28;20188;-52
2023/12/26 13:24:19;;;;;;;192.07;29.43;;;;;;;;;;4980867;28;20213;-52
2023/12/26 13:26:44;;;;;;;262.43;42.47;;;;;;;;;;4984870;28;20252;-52
2023/12/26 13:29:20;;;;;;;271.90;44.27;;;;;;;;;;4983198;28;20319;-52
2023/12/26 13:31:47;;;;;;;226.63;35.07;;;;;;;;;;4986544;28;20564;-52
2023/12/26 13:34:13;;;;;;;168.90;25.30;;;;;;;;;;4996542;28;20235;-52
2023/12/26 13:36:39;;;;;;;230.80;36.23;;;;;;;;;;4991093;28;20248;-52
2023/12/26 13:39:05;;;;;;;240.87;39.37;;;;;;;;;;4988661;28;20724;-52
2023/12/26 13:41:31;;;;;;;183.63;27.07;;;;;;;;;;4994126;28;20213;-52
2023/12/26 13:43:57;;;;;;;305.20;49.17;;;;;;;;;;4990248;28;20408;-52
2023/12/26 13:46:23;;;;;;;250.67;38.77;;;;;;;;;;4988438;28;20227;-52
2023/12/26 13:48:49;;;;;;;287.93;46.37;;;;;;;;;;4991903;28;20244;-52
2023/12/26 13:51:14;;;;;;;213.43;32.17;;;;;;;;;;4992189;28;20196;-52
2023/12/26 13:53:40;;;;;;;276.53;44.13;;;;;;;;;;4988213;28;20632;-51
2023/12/26 13:56:07;;;;;;;286.67;46.57;;;;;;;;;;4988653;28;20311;-51
2023/12/26 13:58:33;;;;;;;280.63;48.33;;;;;;;;;;4980681;28;20636;-52
2023/12/26 14:00:59;;;;;;;231.03;38.03;;;;;;;;;;4986396;28;20225;-51
2023/12/26 14:03:28;;;;;;;245.33;41.70;;;;;;;;;;4994926;28;20189;-51